sensor_id;sensor_type;location;lat;lon;timestamp;temperature;humidity
28614;DHT22;15806;53.548;9.964;2023-06-22T00:01:23;19.20;35.10
28614;DHT22;15806;53.548;9.964;2023-06-22T00:03:03;19.20;99.90
28614;DHT22;15806;53.548;9.964;2023-06-22T00:04:44;19.20;99.90
28614;DHT22;15806;53.548;9.964;2023-06-22T00:06:24;19.10;99.90
28614;DHT22;15806;53.548;9.964;2023-06-22T00:08:05;19.10;99.90
28614;DHT22;15806;53.548;9.964;2023-06-22T00:09:45;19.10;99.90
28614;DHT22;15806;53.548;9.964;2023-06-22T00:11:26;19.10;99.90
28614;DHT22;15806;53.548;9.964;2023-06-22T00:13:09;19.10;1.00
28614;DHT22;15806;53.548;9.964;2023-06-22T00:14:50;19.10;1.00
28614;DHT22;15806;53.548;9.964;2023-06-22T00:16:32;19.10;1.00
28614;DHT22;15806;53.548;9.964;2023-06-22T00:18:12;19.10;1.00
28614;DHT22;15806;53.548;9.964;2023-06-22T00:19:53;19.10;45.30
28614;DHT22;15806;53.548;9.964;2023-06-22T00:21:33;19.10;94.00
28614;DHT22;15806;53.548;9.964;2023-06-22T00:23:14;19.10;99.90
28614;DHT22;15806;53.548;9.964;2023-06-22T00:24:55;19.10;99.90
28614;DHT22;15806;53.548;9.964;2023-06-22T00:26:38;19.10;99.90
28614;DHT22;15806;53.548;9.964;2023-06-22T00:28:19;19.10;99.90
28614;DHT22;15806;53.548;9.964;2023-06-22T00:30:00;19.10;99.90
28614;DHT22;15806;53.548;9.964;2023-06-22T00:31:40;19.10;99.90
28614;DHT22;15806;53.548;9.964;2023-06-22T00:33:21;19.10;99.90
28614;DHT22;15806;53.548;9.964;2023-06-22T00:35:01;19.10;99.90
28614;DHT22;15806;53.548;9.964;2023-06-22T00:36:42;19.20;99.90
28614;DHT22;15806;53.548;9.964;2023-06-22T00:38:22;19.20;99.90
28614;DHT22;15806;53.548;9.964;2023-06-22T00:40:04;19.20;99.90
28614;DHT22;15806;53.548;9.964;2023-06-22T00:41:44;19.20;99.90
28614;DHT22;15806;53.548;9.964;2023-06-22T00:43:25;19.20;99.90
28614;DHT22;15806;53.548;9.964;2023-06-22T00:45:06;19.20;99.90
28614;DHT22;15806;53.548;9.964;2023-06-22T00:46:47;19.20;99.90
28614;DHT22;15806;53.548;9.964;2023-06-22T00:48:27;19.20;99.90
28614;DHT22;15806;53.548;9.964;2023-06-22T00:50:09;19.20;99.90
28614;DHT22;15806;53.548;9.964;2023-06-22T00:51:55;19.20;99.90
28614;DHT22;15806;53.548;9.964;2023-06-22T00:53:36;19.20;99.90
28614;DHT22;15806;53.548;9.964;2023-06-22T00:55:19;19.10;99.90
28614;DHT22;15806;53.548;9.964;2023-06-22T00:57:00;19.10;1.00
28614;DHT22;15806;53.548;9.964;2023-06-22T00:58:42;19.20;1.00
28614;DHT22;15806;53.548;9.964;2023-06-22T01:00:24;19.10;1.00
28614;DHT22;15806;53.548;9.964;2023-06-22T01:02:05;19.10;1.00
28614;DHT22;15806;53.548;9.964;2023-06-22T01:03:45;19.10;1.00
28614;DHT22;15806;53.548;9.964;2023-06-22T01:05:26;19.10;1.00
28614;DHT22;15806;53.548;9.964;2023-06-22T01:08:15;19.10;1.00
28614;DHT22;15806;53.548;9.964;2023-06-22T01:10:14;19.10;1.00
28614;DHT22;15806;53.548;9.964;2023-06-22T01:11:53;19.10;1.00
28614;DHT22;15806;53.548;9.964;2023-06-22T01:17:26;19.00;1.00
28614;DHT22;15806;53.548;9.964;2023-06-22T01:21:20;19.00;1.00
28614;DHT22;15806;53.548;9.964;2023-06-22T01:23:17;18.90;1.00
28614;DHT22;15806;53.548;9.964;2023-06-22T01:25:09;19.00;18.30
28614;DHT22;15806;53.548;9.964;2023-06-22T01:27:03;18.90;40.80
28614;DHT22;15806;53.548;9.964;2023-06-22T01:28:47;18.90;99.90
28614;DHT22;15806;53.548;9.964;2023-06-22T01:30:30;18.90;99.90
28614;DHT22;15806;53.548;9.964;2023-06-22T01:32:11;19.00;99.90
28614;DHT22;15806;53.548;9.964;2023-06-22T01:34:02;19.00;99.90
28614;DHT22;15806;53.548;9.964;2023-06-22T01:35:43;18.90;82.60
28614;DHT22;15806;53.548;9.964;2023-06-22T01:37:25;18.90;29.20
28614;DHT22;15806;53.548;9.964;2023-06-22T01:39:07;18.90;27.50
28614;DHT22;15806;53.548;9.964;2023-06-22T01:40:49;18.90;91.20
28614;DHT22;15806;53.548;9.964;2023-06-22T01:42:30;18.80;91.20
28614;DHT22;15806;53.548;9.964;2023-06-22T01:44:10;18.80;99.90
28614;DHT22;15806;53.548;9.964;2023-06-22T01:45:53;18.90;99.90
28614;DHT22;15806;53.548;9.964;2023-06-22T01:47:34;18.80;99.90
28614;DHT22;15806;53.548;9.964;2023-06-22T01:49:15;18.80;1.00
28614;DHT22;15806;53.548;9.964;2023-06-22T01:50:56;18.80;1.00
28614;DHT22;15806;53.548;9.964;2023-06-22T01:52:36;18.80;1.00
28614;DHT22;15806;53.548;9.964;2023-06-22T01:54:16;18.80;1.00
28614;DHT22;15806;53.548;9.964;2023-06-22T01:55:57;18.80;1.00
28614;DHT22;15806;53.548;9.964;2023-06-22T01:57:39;18.80;1.00
28614;DHT22;15806;53.548;9.964;2023-06-22T01:59:26;18.70;1.00
28614;DHT22;15806;53.548;9.964;2023-06-22T02:01:13;18.70;1.00
28614;DHT22;15806;53.548;9.964;2023-06-22T02:03:01;18.70;1.00
28614;DHT22;15806;53.548;9.964;2023-06-22T02:04:52;18.70;73.00
28614;DHT22;15806;53.548;9.964;2023-06-22T02:06:37;18.70;99.90
28614;DHT22;15806;53.548;9.964;2023-06-22T02:08:25;18.60;99.90
28614;DHT22;15806;53.548;9.964;2023-06-22T02:10:07;18.70;99.90
28614;DHT22;15806;53.548;9.964;2023-06-22T02:11:50;18.60;99.90
28614;DHT22;15806;53.548;9.964;2023-06-22T02:13:33;18.60;1.00
28614;DHT22;15806;53.548;9.964;2023-06-22T02:15:14;18.60;1.00
28614;DHT22;15806;53.548;9.964;2023-06-22T02:16:56;18.60;1.00
28614;DHT22;15806;53.548;9.964;2023-06-22T02:18:37;18.60;1.00
28614;DHT22;15806;53.548;9.964;2023-06-22T02:20:17;18.60;35.10
28614;DHT22;15806;53.548;9.964;2023-06-22T02:21:58;18.50;99.90
28614;DHT22;15806;53.548;9.964;2023-06-22T02:23:38;18.60;99.90
28614;DHT22;15806;53.548;9.964;2023-06-22T02:25:19;18.60;99.90
28614;DHT22;15806;53.548;9.964;2023-06-22T02:27:00;18.50;1.00
28614;DHT22;15806;53.548;9.964;2023-06-22T02:28:41;18.60;1.00
28614;DHT22;15806;53.548;9.964;2023-06-22T02:30:21;18.50;99.90
28614;DHT22;15806;53.548;9.964;2023-06-22T02:32:02;18.50;1.00
28614;DHT22;15806;53.548;9.964;2023-06-22T02:33:42;18.50;1.00
28614;DHT22;15806;53.548;9.964;2023-06-22T02:35:23;18.50;1.00
28614;DHT22;15806;53.548;9.964;2023-06-22T02:37:04;18.50;1.00
28614;DHT22;15806;53.548;9.964;2023-06-22T02:38:44;18.40;32.50
28614;DHT22;15806;53.548;9.964;2023-06-22T02:40:25;18.40;99.90
28614;DHT22;15806;53.548;9.964;2023-06-22T02:42:06;18.40;99.90
28614;DHT22;15806;53.548;9.964;2023-06-22T02:43:46;18.40;99.90
28614;DHT22;15806;53.548;9.964;2023-06-22T02:45:27;18.40;1.00
28614;DHT22;15806;53.548;9.964;2023-06-22T02:47:07;18.30;1.00
28614;DHT22;15806;53.548;9.964;2023-06-22T02:48:48;18.30;99.90
28614;DHT22;15806;53.548;9.964;2023-06-22T02:50:28;18.30;1.00
28614;DHT22;15806;53.548;9.964;2023-06-22T02:52:09;18.30;1.00
28614;DHT22;15806;53.548;9.964;2023-06-22T02:53:49;18.30;99.90
28614;DHT22;15806;53.548;9.964;2023-06-22T02:55:30;18.30;1.00
28614;DHT22;15806;53.548;9.964;2023-06-22T02:57:11;18.30;48.70
28614;DHT22;15806;53.548;9.964;2023-06-22T02:58:51;18.30;99.90
28614;DHT22;15806;53.548;9.964;2023-06-22T03:00:32;18.30;99.90
28614;DHT22;15806;53.548;9.964;2023-06-22T03:02:12;18.20;1.00
28614;DHT22;15806;53.548;9.964;2023-06-22T03:03:54;18.20;1.00
28614;DHT22;15806;53.548;9.964;2023-06-22T03:05:34;18.20;99.90
28614;DHT22;15806;53.548;9.964;2023-06-22T03:07:15;18.20;99.90
28614;DHT22;15806;53.548;9.964;2023-06-22T03:09:00;18.20;99.90
28614;DHT22;15806;53.548;9.964;2023-06-22T03:10:41;18.20;99.90
28614;DHT22;15806;53.548;9.964;2023-06-22T03:12:21;18.20;99.90
28614;DHT22;15806;53.548;9.964;2023-06-22T03:14:02;18.20;99.90
28614;DHT22;15806;53.548;9.964;2023-06-22T03:15:42;18.20;99.90
28614;DHT22;15806;53.548;9.964;2023-06-22T03:17:23;18.20;99.90
28614;DHT22;15806;53.548;9.964;2023-06-22T03:19:03;18.10;99.90
28614;DHT22;15806;53.548;9.964;2023-06-22T03:20:44;18.10;99.90
28614;DHT22;15806;53.548;9.964;2023-06-22T03:22:24;18.20;99.90
28614;DHT22;15806;53.548;9.964;2023-06-22T03:24:06;18.10;99.90
28614;DHT22;15806;53.548;9.964;2023-06-22T03:25:47;18.20;99.90
28614;DHT22;15806;53.548;9.964;2023-06-22T03:27:27;18.10;99.90
28614;DHT22;15806;53.548;9.964;2023-06-22T03:29:08;18.10;99.90
28614;DHT22;15806;53.548;9.964;2023-06-22T03:30:48;18.10;99.90
28614;DHT22;15806;53.548;9.964;2023-06-22T03:32:29;18.10;99.90
28614;DHT22;15806;53.548;9.964;2023-06-22T03:34:09;18.10;99.90
28614;DHT22;15806;53.548;9.964;2023-06-22T03:35:50;18.10;99.90
28614;DHT22;15806;53.548;9.964;2023-06-22T03:37:30;18.20;99.90
28614;DHT22;15806;53.548;9.964;2023-06-22T03:39:11;18.20;99.90
28614;DHT22;15806;53.548;9.964;2023-06-22T03:40:51;18.20;99.90
28614;DHT22;15806;53.548;9.964;2023-06-22T03:42:34;18.20;99.90
28614;DHT22;15806;53.548;9.964;2023-06-22T03:44:14;18.20;99.90
28614;DHT22;15806;53.548;9.964;2023-06-22T03:45:55;18.30;99.90
28614;DHT22;15806;53.548;9.964;2023-06-22T03:47:35;18.30;99.90
28614;DHT22;15806;53.548;9.964;2023-06-22T03:49:16;18.30;99.90
28614;DHT22;15806;53.548;9.964;2023-06-22T03:50:56;18.40;99.90
28614;DHT22;15806;53.548;9.964;2023-06-22T03:52:37;18.40;99.90
28614;DHT22;15806;53.548;9.964;2023-06-22T03:54:17;18.30;99.90
28614;DHT22;15806;53.548;9.964;2023-06-22T03:55:58;18.40;99.90
28614;DHT22;15806;53.548;9.964;2023-06-22T03:57:38;18.40;99.90
28614;DHT22;15806;53.548;9.964;2023-06-22T03:59:19;18.40;99.90
28614;DHT22;15806;53.548;9.964;2023-06-22T04:00:59;18.40;99.90
28614;DHT22;15806;53.548;9.964;2023-06-22T04:02:40;18.40;99.90
28614;DHT22;15806;53.548;9.964;2023-06-22T04:04:20;18.50;99.90
28614;DHT22;15806;53.548;9.964;2023-06-22T04:06:01;18.50;99.90
28614;DHT22;15806;53.548;9.964;2023-06-22T04:07:41;18.60;99.90
28614;DHT22;15806;53.548;9.964;2023-06-22T04:09:23;18.50;28.60
28614;DHT22;15806;53.548;9.964;2023-06-22T04:11:04;18.50;1.00
28614;DHT22;15806;53.548;9.964;2023-06-22T04:12:44;18.60;99.90
28614;DHT22;15806;53.548;9.964;2023-06-22T04:14:25;18.60;1.00
28614;DHT22;15806;53.548;9.964;2023-06-22T04:16:05;18.60;99.90
28614;DHT22;15806;53.548;9.964;2023-06-22T04:17:46;18.70;1.00
28614;DHT22;15806;53.548;9.964;2023-06-22T04:19:26;18.70;99.90
28614;DHT22;15806;53.548;9.964;2023-06-22T04:21:07;18.70;5.60
28614;DHT22;15806;53.548;9.964;2023-06-22T04:22:48;18.70;1.00
28614;DHT22;15806;53.548;9.964;2023-06-22T04:24:28;18.70;99.90
28614;DHT22;15806;53.548;9.964;2023-06-22T04:26:09;18.80;99.90
28614;DHT22;15806;53.548;9.964;2023-06-22T04:27:49;18.80;99.90
28614;DHT22;15806;53.548;9.964;2023-06-22T04:29:30;18.80;1.00
28614;DHT22;15806;53.548;9.964;2023-06-22T04:31:10;18.80;1.00
28614;DHT22;15806;53.548;9.964;2023-06-22T04:32:51;18.80;1.00
28614;DHT22;15806;53.548;9.964;2023-06-22T04:34:32;18.80;1.00
28614;DHT22;15806;53.548;9.964;2023-06-22T04:36:12;18.90;99.90
28614;DHT22;15806;53.548;9.964;2023-06-22T04:37:53;18.90;99.90
28614;DHT22;15806;53.548;9.964;2023-06-22T04:39:33;18.90;60.80
28614;DHT22;15806;53.548;9.964;2023-06-22T04:41:14;18.90;1.00
28614;DHT22;15806;53.548;9.964;2023-06-22T04:42:54;18.90;1.00
28614;DHT22;15806;53.548;9.964;2023-06-22T04:44:35;18.90;1.00
28614;DHT22;15806;53.548;9.964;2023-06-22T04:46:15;19.00;1.00
28614;DHT22;15806;53.548;9.964;2023-06-22T04:47:56;19.00;75.40
28614;DHT22;15806;53.548;9.964;2023-06-22T04:49:37;19.00;94.70
28614;DHT22;15806;53.548;9.964;2023-06-22T04:51:17;19.00;1.00
28614;DHT22;15806;53.548;9.964;2023-06-22T04:52:58;19.00;1.00
28614;DHT22;15806;53.548;9.964;2023-06-22T04:54:39;19.10;1.00
28614;DHT22;15806;53.548;9.964;2023-06-22T04:56:20;19.10;99.90
28614;DHT22;15806;53.548;9.964;2023-06-22T04:58:00;19.20;99.90
28614;DHT22;15806;53.548;9.964;2023-06-22T04:59:41;19.20;99.90
28614;DHT22;15806;53.548;9.964;2023-06-22T05:01:23;19.30;99.90
28614;DHT22;15806;53.548;9.964;2023-06-22T05:03:03;19.40;1.00
28614;DHT22;15806;53.548;9.964;2023-06-22T05:04:44;19.40;1.00
28614;DHT22;15806;53.548;9.964;2023-06-22T05:06:24;19.50;99.90
28614;DHT22;15806;53.548;9.964;2023-06-22T05:08:05;19.50;99.90
28614;DHT22;15806;53.548;9.964;2023-06-22T05:09:45;19.50;23.00
28614;DHT22;15806;53.548;9.964;2023-06-22T05:11:27;19.50;1.00
28614;DHT22;15806;53.548;9.964;2023-06-22T05:13:08;19.50;5.40
28614;DHT22;15806;53.548;9.964;2023-06-22T05:14:48;19.50;99.90
28614;DHT22;15806;53.548;9.964;2023-06-22T05:16:29;19.50;17.00
28614;DHT22;15806;53.548;9.964;2023-06-22T05:18:09;19.60;99.90
28614;DHT22;15806;53.548;9.964;2023-06-22T05:19:50;19.60;1.00
28614;DHT22;15806;53.548;9.964;2023-06-22T05:21:31;19.60;1.00
28614;DHT22;15806;53.548;9.964;2023-06-22T05:23:12;19.70;99.90
28614;DHT22;15806;53.548;9.964;2023-06-22T05:24:52;19.80;1.00
28614;DHT22;15806;53.548;9.964;2023-06-22T05:26:34;19.70;99.90
28614;DHT22;15806;53.548;9.964;2023-06-22T05:28:16;19.70;1.00
28614;DHT22;15806;53.548;9.964;2023-06-22T05:29:56;19.80;99.90
28614;DHT22;15806;53.548;9.964;2023-06-22T05:31:36;19.90;99.90
28614;DHT22;15806;53.548;9.964;2023-06-22T05:33:17;20.00;99.90
28614;DHT22;15806;53.548;9.964;2023-06-22T05:34:59;20.00;1.00
28614;DHT22;15806;53.548;9.964;2023-06-22T05:36:39;20.00;1.00
28614;DHT22;15806;53.548;9.964;2023-06-22T05:38:20;20.10;1.00
28614;DHT22;15806;53.548;9.964;2023-06-22T05:40:05;20.20;1.00
28614;DHT22;15806;53.548;9.964;2023-06-22T05:41:46;20.20;1.00
28614;DHT22;15806;53.548;9.964;2023-06-22T05:43:28;20.20;99.90
28614;DHT22;15806;53.548;9.964;2023-06-22T05:45:09;20.20;99.90
28614;DHT22;15806;53.548;9.964;2023-06-22T05:46:49;20.20;99.90
28614;DHT22;15806;53.548;9.964;2023-06-22T05:48:30;20.20;99.90
28614;DHT22;15806;53.548;9.964;2023-06-22T05:50:10;20.20;99.90
28614;DHT22;15806;53.548;9.964;2023-06-22T05:51:51;20.40;99.90
28614;DHT22;15806;53.548;9.964;2023-06-22T05:53:31;20.40;99.90
28614;DHT22;15806;53.548;9.964;2023-06-22T05:55:12;20.50;77.20
28614;DHT22;15806;53.548;9.964;2023-06-22T05:56:52;20.60;17.80
28614;DHT22;15806;53.548;9.964;2023-06-22T05:58:33;20.70;1.00
28614;DHT22;15806;53.548;9.964;2023-06-22T06:00:14;20.70;1.00
28614;DHT22;15806;53.548;9.964;2023-06-22T06:01:55;20.70;1.00
28614;DHT22;15806;53.548;9.964;2023-06-22T06:03:35;20.80;1.00
28614;DHT22;15806;53.548;9.964;2023-06-22T06:05:16;20.80;1.00
28614;DHT22;15806;53.548;9.964;2023-06-22T06:06:56;20.80;1.00
28614;DHT22;15806;53.548;9.964;2023-06-22T06:08:38;20.80;1.00
28614;DHT22;15806;53.548;9.964;2023-06-22T06:10:18;20.80;1.00
28614;DHT22;15806;53.548;9.964;2023-06-22T06:11:59;20.70;1.00
28614;DHT22;15806;53.548;9.964;2023-06-22T06:13:39;20.70;1.00
28614;DHT22;15806;53.548;9.964;2023-06-22T06:15:20;20.60;1.00
28614;DHT22;15806;53.548;9.964;2023-06-22T06:17:02;20.60;1.00
28614;DHT22;15806;53.548;9.964;2023-06-22T06:18:42;20.80;1.00
28614;DHT22;15806;53.548;9.964;2023-06-22T06:20:24;20.90;99.90
28614;DHT22;15806;53.548;9.964;2023-06-22T06:22:05;20.90;99.90
28614;DHT22;15806;53.548;9.964;2023-06-22T06:23:45;21.10;99.90
28614;DHT22;15806;53.548;9.964;2023-06-22T06:25:26;21.20;99.90
28614;DHT22;15806;53.548;9.964;2023-06-22T06:27:08;21.30;99.90
28614;DHT22;15806;53.548;9.964;2023-06-22T06:28:48;21.40;99.90
28614;DHT22;15806;53.548;9.964;2023-06-22T06:30:29;21.50;99.90
28614;DHT22;15806;53.548;9.964;2023-06-22T06:32:09;21.80;99.90
28614;DHT22;15806;53.548;9.964;2023-06-22T06:33:50;21.70;69.70
28614;DHT22;15806;53.548;9.964;2023-06-22T06:35:30;21.80;78.30
28614;DHT22;15806;53.548;9.964;2023-06-22T06:37:11;21.70;20.20
28614;DHT22;15806;53.548;9.964;2023-06-22T06:38:51;21.80;22.50
28614;DHT22;15806;53.548;9.964;2023-06-22T06:40:32;22.00;12.20
28614;DHT22;15806;53.548;9.964;2023-06-22T06:42:13;21.90;1.00
28614;DHT22;15806;53.548;9.964;2023-06-22T06:43:53;21.80;1.00
28614;DHT22;15806;53.548;9.964;2023-06-22T06:45:34;21.70;1.00
28614;DHT22;15806;53.548;9.964;2023-06-22T06:47:14;21.60;6.60
28614;DHT22;15806;53.548;9.964;2023-06-22T06:48:55;22.00;99.90
28614;DHT22;15806;53.548;9.964;2023-06-22T06:50:35;22.60;99.90
28614;DHT22;15806;53.548;9.964;2023-06-22T06:52:16;23.20;1.00
28614;DHT22;15806;53.548;9.964;2023-06-22T06:53:56;23.00;1.00
28614;DHT22;15806;53.548;9.964;2023-06-22T06:55:37;22.70;1.00
28614;DHT22;15806;53.548;9.964;2023-06-22T06:57:20;22.70;1.00
28614;DHT22;15806;53.548;9.964;2023-06-22T06:59:01;22.50;1.00
28614;DHT22;15806;53.548;9.964;2023-06-22T07:00:42;22.60;1.00
28614;DHT22;15806;53.548;9.964;2023-06-22T07:02:23;22.80;1.00
28614;DHT22;15806;53.548;9.964;2023-06-22T07:04:03;22.90;1.00
28614;DHT22;15806;53.548;9.964;2023-06-22T07:05:44;22.90;1.00
28614;DHT22;15806;53.548;9.964;2023-06-22T07:07:24;22.70;1.00
28614;DHT22;15806;53.548;9.964;2023-06-22T07:09:05;22.80;1.00
28614;DHT22;15806;53.548;9.964;2023-06-22T07:10:46;23.30;1.00
28614;DHT22;15806;53.548;9.964;2023-06-22T07:12:27;24.00;1.00
28614;DHT22;15806;53.548;9.964;2023-06-22T07:14:07;24.70;1.00
28614;DHT22;15806;53.548;9.964;2023-06-22T07:15:48;25.20;1.00
28614;DHT22;15806;53.548;9.964;2023-06-22T07:17:28;25.70;99.90
28614;DHT22;15806;53.548;9.964;2023-06-22T07:19:11;26.00;99.90
28614;DHT22;15806;53.548;9.964;2023-06-22T07:20:52;26.80;99.90
28614;DHT22;15806;53.548;9.964;2023-06-22T07:22:33;27.10;99.90
28614;DHT22;15806;53.548;9.964;2023-06-22T07:24:13;26.70;99.90
28614;DHT22;15806;53.548;9.964;2023-06-22T07:25:54;26.80;99.90
28614;DHT22;15806;53.548;9.964;2023-06-22T07:27:40;27.20;99.90
28614;DHT22;15806;53.548;9.964;2023-06-22T07:29:21;27.60;99.90
28614;DHT22;15806;53.548;9.964;2023-06-22T07:31:01;27.60;99.90
28614;DHT22;15806;53.548;9.964;2023-06-22T07:32:42;27.60;99.90
28614;DHT22;15806;53.548;9.964;2023-06-22T07:34:22;27.30;99.90
28614;DHT22;15806;53.548;9.964;2023-06-22T07:36:03;26.80;99.90
28614;DHT22;15806;53.548;9.964;2023-06-22T07:37:43;26.30;99.90
28614;DHT22;15806;53.548;9.964;2023-06-22T07:39:24;26.30;99.90
28614;DHT22;15806;53.548;9.964;2023-06-22T07:41:04;26.20;99.90
28614;DHT22;15806;53.548;9.964;2023-06-22T07:42:45;25.70;99.90
28614;DHT22;15806;53.548;9.964;2023-06-22T07:44:25;25.90;99.90
28614;DHT22;15806;53.548;9.964;2023-06-22T07:46:06;26.20;99.90
28614;DHT22;15806;53.548;9.964;2023-06-22T07:47:47;26.90;99.90
28614;DHT22;15806;53.548;9.964;2023-06-22T07:49:28;28.10;99.90
28614;DHT22;15806;53.548;9.964;2023-06-22T07:51:08;28.30;99.90
28614;DHT22;15806;53.548;9.964;2023-06-22T07:52:49;27.80;99.90
28614;DHT22;15806;53.548;9.964;2023-06-22T07:54:29;27.40;99.90
28614;DHT22;15806;53.548;9.964;2023-06-22T07:56:10;25.30;99.90
28614;DHT22;15806;53.548;9.964;2023-06-22T07:57:51;24.60;99.90
28614;DHT22;15806;53.548;9.964;2023-06-22T07:59:31;24.40;99.90
28614;DHT22;15806;53.548;9.964;2023-06-22T08:01:13;24.20;99.90
28614;DHT22;15806;53.548;9.964;2023-06-22T08:02:54;23.90;99.90
28614;DHT22;15806;53.548;9.964;2023-06-22T08:04:34;23.80;99.90
28614;DHT22;15806;53.548;9.964;2023-06-22T08:06:15;23.60;1.00
28614;DHT22;15806;53.548;9.964;2023-06-22T08:07:56;23.70;1.00
28614;DHT22;15806;53.548;9.964;2023-06-22T08:09:36;23.70;1.00
28614;DHT22;15806;53.548;9.964;2023-06-22T08:11:17;23.80;1.00
28614;DHT22;15806;53.548;9.964;2023-06-22T08:12:57;23.90;1.00
28614;DHT22;15806;53.548;9.964;2023-06-22T08:14:38;24.90;99.90
28614;DHT22;15806;53.548;9.964;2023-06-22T08:16:19;25.10;99.90
28614;DHT22;15806;53.548;9.964;2023-06-22T08:17:59;24.70;99.90
28614;DHT22;15806;53.548;9.964;2023-06-22T08:19:40;24.50;99.90
28614;DHT22;15806;53.548;9.964;2023-06-22T08:21:20;24.70;99.90
28614;DHT22;15806;53.548;9.964;2023-06-22T08:23:01;25.10;99.90
28614;DHT22;15806;53.548;9.964;2023-06-22T08:24:42;25.50;99.90
28614;DHT22;15806;53.548;9.964;2023-06-22T08:26:22;25.50;99.90
28614;DHT22;15806;53.548;9.964;2023-06-22T08:28:04;24.90;99.90
28614;DHT22;15806;53.548;9.964;2023-06-22T08:29:44;25.30;99.90
28614;DHT22;15806;53.548;9.964;2023-06-22T08:31:25;26.10;99.90
28614;DHT22;15806;53.548;9.964;2023-06-22T08:33:05;27.20;99.90
28614;DHT22;15806;53.548;9.964;2023-06-22T08:34:46;27.70;99.90
28614;DHT22;15806;53.548;9.964;2023-06-22T08:36:26;28.30;99.90
28614;DHT22;15806;53.548;9.964;2023-06-22T08:38:07;29.00;99.90
28614;DHT22;15806;53.548;9.964;2023-06-22T08:39:47;28.80;99.90
28614;DHT22;15806;53.548;9.964;2023-06-22T08:41:28;28.70;99.90
28614;DHT22;15806;53.548;9.964;2023-06-22T08:43:09;28.40;99.90
28614;DHT22;15806;53.548;9.964;2023-06-22T08:44:50;29.10;99.90
28614;DHT22;15806;53.548;9.964;2023-06-22T08:46:31;30.10;99.90
28614;DHT22;15806;53.548;9.964;2023-06-22T08:48:11;30.50;99.90
28614;DHT22;15806;53.548;9.964;2023-06-22T08:49:51;31.10;99.90
28614;DHT22;15806;53.548;9.964;2023-06-22T08:51:32;31.80;99.90
28614;DHT22;15806;53.548;9.964;2023-06-22T08:53:13;31.60;95.80
28614;DHT22;15806;53.548;9.964;2023-06-22T08:54:55;31.00;93.70
28614;DHT22;15806;53.548;9.964;2023-06-22T08:56:35;30.90;98.30
28614;DHT22;15806;53.548;9.964;2023-06-22T08:58:16;31.20;97.20
28614;DHT22;15806;53.548;9.964;2023-06-22T08:59:56;31.00;94.30
28614;DHT22;15806;53.548;9.964;2023-06-22T09:01:37;32.50;85.20
28614;DHT22;15806;53.548;9.964;2023-06-22T09:03:17;33.70;59.10
28614;DHT22;15806;53.548;9.964;2023-06-22T09:04:58;33.70;29.60
28614;DHT22;15806;53.548;9.964;2023-06-22T09:06:38;32.60;36.20
28614;DHT22;15806;53.548;9.964;2023-06-22T09:08:19;32.10;44.90
28614;DHT22;15806;53.548;9.964;2023-06-22T09:09:59;32.30;45.70
28614;DHT22;15806;53.548;9.964;2023-06-22T09:11:40;32.60;38.60
28614;DHT22;15806;53.548;9.964;2023-06-22T09:13:20;32.30;40.00
28614;DHT22;15806;53.548;9.964;2023-06-22T09:15:01;32.50;34.20
28614;DHT22;15806;53.548;9.964;2023-06-22T09:16:41;32.60;34.50
28614;DHT22;15806;53.548;9.964;2023-06-22T09:18:22;31.10;28.90
28614;DHT22;15806;53.548;9.964;2023-06-22T09:20:02;31.30;45.10
28614;DHT22;15806;53.548;9.964;2023-06-22T09:21:43;32.10;32.60
28614;DHT22;15806;53.548;9.964;2023-06-22T09:23:24;31.40;31.50
28614;DHT22;15806;53.548;9.964;2023-06-22T09:25:05;31.30;42.70
28614;DHT22;15806;53.548;9.964;2023-06-22T09:26:45;31.20;34.10
28614;DHT22;15806;53.548;9.964;2023-06-22T09:28:26;32.40;31.50
28614;DHT22;15806;53.548;9.964;2023-06-22T09:30:07;32.10;29.90
28614;DHT22;15806;53.548;9.964;2023-06-22T09:31:47;31.90;27.70
28614;DHT22;15806;53.548;9.964;2023-06-22T09:33:28;32.20;31.60
28614;DHT22;15806;53.548;9.964;2023-06-22T09:35:08;32.50;23.10
28614;DHT22;15806;53.548;9.964;2023-06-22T09:36:49;32.50;19.90
28614;DHT22;15806;53.548;9.964;2023-06-22T09:38:29;32.10;28.90
28614;DHT22;15806;53.548;9.964;2023-06-22T09:40:10;32.80;23.90
28614;DHT22;15806;53.548;9.964;2023-06-22T09:41:50;31.80;26.20
28614;DHT22;15806;53.548;9.964;2023-06-22T09:43:31;31.90;30.40
28614;DHT22;15806;53.548;9.964;2023-06-22T09:45:12;31.40;25.80
28614;DHT22;15806;53.548;9.964;2023-06-22T09:46:53;30.60;23.30
28614;DHT22;15806;53.548;9.964;2023-06-22T09:48:33;30.30;33.40
28614;DHT22;15806;53.548;9.964;2023-06-22T09:50:13;31.70;28.80
28614;DHT22;15806;53.548;9.964;2023-06-22T09:51:54;32.40;13.30
28614;DHT22;15806;53.548;9.964;2023-06-22T09:53:34;32.90;9.80
28614;DHT22;15806;53.548;9.964;2023-06-22T09:55:15;32.10;14.70
28614;DHT22;15806;53.548;9.964;2023-06-22T09:56:55;32.20;12.70
28614;DHT22;15806;53.548;9.964;2023-06-22T09:58:36;30.50;25.90
28614;DHT22;15806;53.548;9.964;2023-06-22T10:00:17;31.30;22.10
28614;DHT22;15806;53.548;9.964;2023-06-22T10:01:57;31.20;19.70
28614;DHT22;15806;53.548;9.964;2023-06-22T10:03:38;30.60;23.90
28614;DHT22;15806;53.548;9.964;2023-06-22T10:05:18;29.50;38.20
28614;DHT22;15806;53.548;9.964;2023-06-22T10:06:59;29.60;43.00
28614;DHT22;15806;53.548;9.964;2023-06-22T10:08:39;29.70;40.80
28614;DHT22;15806;53.548;9.964;2023-06-22T10:10:20;30.40;32.00
28614;DHT22;15806;53.548;9.964;2023-06-22T10:12:00;30.70;29.30
28614;DHT22;15806;53.548;9.964;2023-06-22T10:13:41;30.50;36.90
28614;DHT22;15806;53.548;9.964;2023-06-22T10:15:21;31.20;28.60
28614;DHT22;15806;53.548;9.964;2023-06-22T10:17:02;31.10;30.00
28614;DHT22;15806;53.548;9.964;2023-06-22T10:18:43;30.90;28.90
28614;DHT22;15806;53.548;9.964;2023-06-22T10:20:23;30.30;31.80
28614;DHT22;15806;53.548;9.964;2023-06-22T10:22:05;30.30;34.50
28614;DHT22;15806;53.548;9.964;2023-06-22T10:23:45;30.50;32.80
28614;DHT22;15806;53.548;9.964;2023-06-22T10:25:26;30.60;29.20
28614;DHT22;15806;53.548;9.964;2023-06-22T10:27:06;30.70;25.00
28614;DHT22;15806;53.548;9.964;2023-06-22T10:28:47;30.40;28.80
28614;DHT22;15806;53.548;9.964;2023-06-22T10:30:27;30.80;25.80
28614;DHT22;15806;53.548;9.964;2023-06-22T10:32:08;31.20;23.40
28614;DHT22;15806;53.548;9.964;2023-06-22T10:33:48;31.10;25.30
28614;DHT22;15806;53.548;9.964;2023-06-22T10:35:29;31.00;19.60
28614;DHT22;15806;53.548;9.964;2023-06-22T10:37:09;31.20;25.20
28614;DHT22;15806;53.548;9.964;2023-06-22T10:38:50;31.60;18.20
28614;DHT22;15806;53.548;9.964;2023-06-22T10:40:30;32.50;15.50
28614;DHT22;15806;53.548;9.964;2023-06-22T10:42:12;33.70;5.60
28614;DHT22;15806;53.548;9.964;2023-06-22T10:43:52;34.70;2.10
28614;DHT22;15806;53.548;9.964;2023-06-22T10:45:33;35.60;1.00
28614;DHT22;15806;53.548;9.964;2023-06-22T10:47:14;36.50;1.00
28614;DHT22;15806;53.548;9.964;2023-06-22T10:48:54;35.10;1.00